Time;durP1;ratioP1;P1;durP2;ratioP2;P2;SDS_P1;SDS_P2;PMS_P1;PMS_P2;Temp;Humidity;BMP_temperature;BMP_pressure;BME280_temperature;BME280_humidity;BME280_pressure;Samples;Min_cycle;Max_cycle;Signal;HPM_P1;HPM_P2
2021/08/22 00:01:15;;;;;;;17.47;10.40;;;14.20;99.90;;;;;;4321572;33;20141;-76
2021/08/22 00:03:42;;;;;;;15.20;10.00;;;14.20;99.90;;;;;;4321232;33;20406;-76
2021/08/22 00:06:09;;;;;;;14.77;9.30;;;14.20;99.90;;;;;;4320502;33;20216;-76
2021/08/22 00:08:38;;;;;;;17.10;10.00;;;14.20;99.90;;;;;;4319586;33;20215;-76
2021/08/22 00:11:05;;;;;;;17.77;9.57;;;14.20;99.90;;;;;;4321398;33;20175;-76
2021/08/22 00:13:32;;;;;;;14.37;9.80;;;14.10;99.90;;;;;;4321379;33;20183;-76
2021/08/22 00:16:00;;;;;;;16.83;9.57;;;14.10;99.90;;;;;;4321301;33;20142;-76
2021/08/22 00:18:27;;;;;;;15.37;9.57;;;14.10;99.90;;;;;;4320064;33;20561;-76
2021/08/22 00:20:54;;;;;;;14.77;9.43;;;14.10;99.90;;;;;;4321154;33;20343;-76
2021/08/22 00:23:21;;;;;;;15.73;9.67;;;14.00;99.90;;;;;;4320570;33;20167;-76
2021/08/22 00:25:49;;;;;;;15.00;9.73;;;14.00;99.90;;;;;;4320537;33;20433;-76
2021/08/22 00:28:16;;;;;;;15.47;9.87;;;14.00;99.90;;;;;;4322224;33;20132;-76
2021/08/22 00:30:43;;;;;;;15.77;9.47;;;14.00;99.90;;;;;;4319592;33;20476;-76
2021/08/22 00:33:10;;;;;;;15.73;9.67;;;14.00;99.90;;;;;;4320736;33;20180;-76
2021/08/22 00:35:36;;;;;;;17.70;10.47;;;13.90;99.90;;;;;;4320954;33;20208;-76
2021/08/22 00:38:03;;;;;;;15.40;9.87;;;13.90;99.90;;;;;;4320414;33;20215;-76
2021/08/22 00:40:30;;;;;;;15.87;9.97;;;13.90;99.90;;;;;;4318801;33;20141;-76
2021/08/22 00:42:57;;;;;;;13.63;9.33;;;13.80;99.90;;;;;;4319519;33;20535;-75
2021/08/22 00:45:24;;;;;;;16.17;9.90;;;13.80;99.90;;;;;;4320926;33;20129;-75
2021/08/22 00:47:51;;;;;;;16.40;9.67;;;13.80;99.90;;;;;;4319293;33;20188;-75
2021/08/22 00:50:21;;;;;;;16.97;10.17;;;13.80;99.90;;;;;;4320837;33;20130;-75
2021/08/22 00:52:50;;;;;;;15.07;9.50;;;13.80;99.90;;;;;;4319145;33;20473;-75
2021/08/22 00:55:18;;;;;;;16.37;10.17;;;13.70;99.90;;;;;;4319765;33;20189;-76
2021/08/22 00:57:45;;;;;;;18.63;10.50;;;13.70;99.90;;;;;;4319195;33;20188;-76
2021/08/22 01:00:14;;;;;;;16.30;9.60;;;13.70;99.90;;;;;;4318549;33;20133;-76
2021/08/22 01:02:47;;;;;;;15.30;9.73;;;13.70;99.90;;;;;;4306973;33;20151;-76
2021/08/22 01:05:24;;;;;;;15.97;9.73;;;13.70;99.90;;;;;;4318884;33;20214;-76
2021/08/22 01:08:11;;;;;;;16.87;9.77;;;13.60;99.90;;;;;;4318667;33;20451;-76
2021/08/22 01:10:40;;;;;;;17.60;9.83;;;13.60;99.90;;;;;;4320639;33;20431;-76
2021/08/22 01:13:10;;;;;;;15.07;9.50;;;13.60;99.90;;;;;;4319167;33;20235;-76
2021/08/22 01:15:43;;;;;;;16.07;10.07;;;13.60;99.90;;;;;;4318658;33;20436;-75
2021/08/22 01:18:14;;;;;;;16.47;9.53;;;13.50;99.90;;;;;;4320020;33;20181;-76
2021/08/22 01:20:55;;;;;;;14.67;10.07;;;13.60;99.90;;;;;;4318815;33;20196;-76
2021/08/22 01:23:23;;;;;;;15.63;10.23;;;13.60;99.90;;;;;;4319343;33;20129;-76
2021/08/22 01:25:51;;;;;;;16.97;9.93;;;13.60;99.90;;;;;;4320455;33;20448;-76
2021/08/22 01:28:19;;;;;;;16.00;9.90;;;13.60;99.90;;;;;;4319711;33;20444;-76
2021/08/22 01:30:48;;;;;;;15.67;9.90;;;13.60;99.90;;;;;;4320196;33;20134;-76
2021/08/22 01:33:18;;;;;;;15.27;10.13;;;13.60;99.90;;;;;;4319573;33;20142;-76
2021/08/22 01:35:46;;;;;;;16.27;10.90;;;13.60;99.90;;;;;;4318716;33;20212;-76
2021/08/22 01:38:14;;;;;;;16.03;10.30;;;13.60;99.90;;;;;;4318456;33;20483;-75
2021/08/22 01:40:41;;;;;;;16.40;10.07;;;13.60;99.90;;;;;;4320400;33;20183;-76
2021/08/22 01:43:11;;;;;;;17.30;10.53;;;13.50;99.90;;;;;;4318624;33;20170;-76
2021/08/22 01:45:38;;;;;;;14.20;9.97;;;13.50;99.90;;;;;;4318254;33;20192;-76
2021/08/22 01:48:06;;;;;;;16.90;10.33;;;13.50;99.90;;;;;;4320197;33;20404;-76
2021/08/22 01:50:33;;;;;;;16.30;10.37;;;13.50;99.90;;;;;;4319350;33;20170;-76
2021/08/22 01:53:04;;;;;;;16.43;10.07;;;13.50;99.90;;;;;;4320199;33;20435;-75
2021/08/22 01:55:32;;;;;;;15.30;9.90;;;13.40;99.90;;;;;;4320067;33;20420;-75
2021/08/22 01:57:59;;;;;;;16.73;10.20;;;13.40;99.90;;;;;;4318573;33;20125;-76
2021/08/22 02:00:25;;;;;;;14.07;9.90;;;13.40;99.90;;;;;;4319769;33;20130;-77
2021/08/22 02:03:09;;;;;;;17.57;10.10;;;13.40;99.90;;;;;;4320229;33;20176;-77
2021/08/22 02:05:37;;;;;;;16.83;10.47;;;13.40;99.90;;;;;;4317970;33;20550;-76
2021/08/22 02:08:22;;;;;;;15.10;9.90;;;13.30;99.90;;;;;;4320218;33;20190;-77
2021/08/22 02:10:58;;;;;;;17.27;10.40;;;13.40;99.90;;;;;;4318594;33;20187;-77
2021/08/22 02:13:33;;;;;;;16.20;10.50;;;13.40;99.90;;;;;;4318803;33;20184;-76
2021/08/22 02:16:02;;;;;;;16.47;10.70;;;13.30;99.90;;;;;;4318969;33;20133;-77
2021/08/22 02:18:30;;;;;;;17.87;10.27;;;13.40;99.90;;;;;;4318625;33;20179;-77
2021/08/22 02:20:58;;;;;;;15.90;10.47;;;13.30;99.90;;;;;;4321208;33;20159;-77
2021/08/22 02:23:25;;;;;;;17.83;11.23;;;13.40;99.90;;;;;;4321810;33;20137;-76
2021/08/22 02:25:52;;;;;;;15.57;10.53;;;13.40;99.90;;;;;;4322600;33;20129;-77
2021/08/22 02:28:20;;;;;;;16.77;10.30;;;13.40;99.90;;;;;;4321725;33;20151;-77
2021/08/22 02:30:50;;;;;;;17.20;10.60;;;13.40;99.90;;;;;;4320726;33;20212;-77
2021/08/22 02:33:16;;;;;;;16.53;10.57;;;13.40;99.90;;;;;;4322789;33;20167;-77
2021/08/22 02:35:43;;;;;;;15.80;10.60;;;13.40;99.90;;;;;;4322450;33;20165;-77
2021/08/22 02:38:10;;;;;;;17.23;11.00;;;13.50;99.90;;;;;;4321382;33;20183;-77
2021/08/22 02:40:37;;;;;;;16.90;10.97;;;13.40;99.90;;;;;;4321817;33;20130;-77
2021/08/22 02:43:04;;;;;;;14.93;10.27;;;13.40;99.90;;;;;;4322836;33;20387;-77
2021/08/22 02:45:32;;;;;;;15.67;10.23;;;13.40;99.90;;;;;;4323304;33;20256;-77
2021/08/22 02:48:00;;;;;;;17.57;11.20;;;13.40;99.90;;;;;;4320911;33;20130;-77
2021/08/22 02:50:28;;;;;;;17.03;10.80;;;13.40;99.90;;;;;;4320621;33;20187;-77
2021/08/22 02:52:55;;;;;;;15.33;10.33;;;13.40;99.90;;;;;;4321877;33;20211;-77
2021/08/22 02:55:23;;;;;;;14.83;10.33;;;13.40;99.90;;;;;;4322596;33;20128;-77
2021/08/22 02:57:49;;;;;;;18.37;11.10;;;13.40;99.90;;;;;;4322199;33;20133;-77
2021/08/22 03:00:17;;;;;;;16.67;10.73;;;13.50;99.90;;;;;;4322481;33;20149;-77
2021/08/22 03:02:44;;;;;;;16.07;10.70;;;13.50;99.90;;;;;;4320497;33;20137;-77
2021/08/22 03:05:11;;;;;;;15.47;10.37;;;13.50;99.90;;;;;;4322030;33;20161;-77
2021/08/22 03:07:37;;;;;;;18.17;10.97;;;13.50;99.90;;;;;;4321724;33;20200;-77
2021/08/22 03:10:05;;;;;;;15.17;10.07;;;13.50;99.90;;;;;;4322367;33;20137;-77
2021/08/22 03:12:32;;;;;;;16.70;9.63;;;13.50;99.90;;;;;;4322349;33;20180;-76
2021/08/22 03:14:59;;;;;;;14.80;9.53;;;13.40;99.90;;;;;;4321971;33;20160;-77
2021/08/22 03:17:26;;;;;;;14.27;9.00;;;13.40;99.90;;;;;;4321845;33;20129;-77
2021/08/22 03:19:53;;;;;;;15.87;9.80;;;13.40;99.90;;;;;;4321207;33;20125;-77
2021/08/22 03:22:22;;;;;;;15.03;9.53;;;13.40;99.90;;;;;;4320221;33;20183;-76
2021/08/22 03:24:49;;;;;;;12.83;9.50;;;13.40;99.90;;;;;;4321593;33;20180;-77
2021/08/22 03:27:16;;;;;;;12.87;8.93;;;13.40;99.90;;;;;;4320330;33;20127;-77
2021/08/22 03:29:43;;;;;;;14.23;8.97;;;13.30;99.90;;;;;;4321815;33;20126;-77
2021/08/22 03:32:09;;;;;;;14.10;9.40;;;13.40;99.90;;;;;;4321240;33;20458;-77
2021/08/22 03:34:36;;;;;;;12.90;8.80;;;13.40;99.90;;;;;;4321816;33;20200;-77
2021/08/22 03:37:03;;;;;;;16.00;9.50;;;13.40;99.90;;;;;;4320143;33;20149;-76
2021/08/22 03:39:30;;;;;;;15.83;9.17;;;13.40;99.90;;;;;;4321036;33;20163;-76
2021/08/22 03:41:57;;;;;;;13.90;9.13;;;13.50;99.90;;;;;;4320954;33;20161;-76
2021/08/22 03:44:24;;;;;;;13.23;8.70;;;13.50;99.90;;;;;;4321522;33;20192;-77
2021/08/22 03:46:51;;;;;;;15.10;9.67;;;13.50;99.90;;;;;;4321232;33;20148;-77
2021/08/22 03:49:18;;;;;;;11.93;8.53;;;13.60;99.90;;;;;;4321005;33;20133;-77
2021/08/22 03:51:44;;;;;;;15.70;9.00;;;13.60;99.90;;;;;;4321755;33;20190;-77
2021/08/22 03:54:11;;;;;;;12.87;8.07;;;13.60;99.90;;;;;;4306804;33;20134;-77
2021/08/22 03:56:38;;;;;;;14.03;8.60;;;13.70;99.90;;;;;;4320078;33;20456;-77
2021/08/22 03:59:07;;;;;;;13.47;8.57;;;13.70;99.90;;;;;;4320146;33;20200;-77
2021/08/22 04:01:37;;;;;;;13.93;8.50;;;13.70;99.90;;;;;;4320173;33;20134;-77
2021/08/22 04:04:05;;;;;;;12.93;8.67;;;13.80;99.90;;;;;;4319673;33;20200;-77
2021/08/22 04:06:33;;;;;;;13.70;8.70;;;13.90;99.90;;;;;;4321009;33;20164;-77
2021/08/22 04:09:01;;;;;;;13.83;8.97;;;13.90;99.90;;;;;;4319755;33;20494;-77
2021/08/22 04:11:31;;;;;;;13.50;8.37;;;13.90;99.90;;;;;;4321226;33;20224;-76
2021/08/22 04:13:57;;;;;;;12.60;8.60;;;14.00;99.90;;;;;;4321129;33;20126;-76
2021/08/22 04:16:24;;;;;;;12.57;8.30;;;14.00;99.90;;;;;;4319632;33;20137;-77
2021/08/22 04:18:51;;;;;;;13.13;8.37;;;14.10;99.90;;;;;;4321035;33;20156;-77
2021/08/22 04:21:18;;;;;;;14.53;9.23;;;14.10;99.90;;;;;;4319136;33;20224;-77
2021/08/22 04:23:45;;;;;;;12.87;8.63;;;14.20;99.90;;;;;;4319527;33;20200;-77
2021/08/22 04:26:11;;;;;;;13.27;8.73;;;14.20;99.90;;;;;;4321385;33;20185;-77
2021/08/22 04:28:38;;;;;;;12.43;8.43;;;14.30;99.90;;;;;;4320997;33;20147;-77
2021/08/22 04:31:05;;;;;;;12.63;8.80;;;14.30;99.90;;;;;;4320345;33;20176;-77
2021/08/22 04:33:32;;;;;;;11.43;8.37;;;14.30;99.90;;;;;;4321132;33;20135;-77
2021/08/22 04:35:59;;;;;;;13.60;8.67;;;14.30;99.90;;;;;;4318903;33;20533;-76
2021/08/22 04:38:26;;;;;;;13.03;8.77;;;14.40;99.90;;;;;;4320936;33;20456;-77
2021/08/22 04:40:53;;;;;;;13.97;8.47;;;14.50;99.90;;;;;;4320233;33;20155;-77
2021/08/22 04:43:20;;;;;;;16.83;9.07;;;14.60;99.90;;;;;;4320122;33;20183;-77
2021/08/22 04:45:46;;;;;;;15.03;8.93;;;14.60;99.90;;;;;;4318954;33;20141;-77
2021/08/22 04:48:13;;;;;;;12.63;9.10;;;14.70;99.90;;;;;;4319146;33;20189;-77
2021/08/22 04:50:40;;;;;;;13.90;9.30;;;14.70;99.90;;;;;;4320683;33;20125;-76
2021/08/22 04:53:07;;;;;;;15.03;9.00;;;14.80;99.90;;;;;;4319737;33;20225;-77
2021/08/22 04:55:33;;;;;;;14.83;8.83;;;14.80;99.90;;;;;;4319195;33;20151;-77
2021/08/22 04:58:00;;;;;;;12.37;8.93;;;14.80;99.90;;;;;;4319989;33;20125;-77
2021/08/22 05:00:27;;;;;;;11.80;8.77;;;14.80;99.90;;;;;;4318821;33;20189;-77
2021/08/22 05:02:54;;;;;;;13.07;8.60;;;14.80;99.90;;;;;;4319428;33;20142;-77
2021/08/22 05:05:22;;;;;;;13.33;8.80;;;14.90;99.90;;;;;;4320856;33;20186;-77
2021/08/22 05:07:49;;;;;;;12.40;8.90;;;14.90;99.90;;;;;;4319022;33;20133;-77
2021/08/22 05:10:16;;;;;;;14.70;8.83;;;14.90;99.90;;;;;;4318981;33;20134;-77
2021/08/22 05:12:43;;;;;;;13.10;8.87;;;15.00;99.90;;;;;;4320522;33;20184;-77
2021/08/22 05:15:10;;;;;;;15.23;8.40;;;15.00;99.90;;;;;;4319251;33;20129;-77
2021/08/22 05:17:37;;;;;;;14.50;9.03;;;15.10;99.90;;;;;;4318626;33;20219;-76
2021/08/22 05:20:04;;;;;;;13.60;9.37;;;15.20;99.90;;;;;;4320478;33;20129;-77
2021/08/22 05:22:31;;;;;;;13.40;8.33;;;15.30;99.90;;;;;;4320611;33;20188;-77
2021/08/22 05:24:58;;;;;;;12.83;9.10;;;15.40;99.90;;;;;;4319347;33;20141;-76
2021/08/22 05:27:25;;;;;;;14.37;9.40;;;15.40;99.90;;;;;;4320412;33;20130;-77
2021/08/22 05:29:52;;;;;;;11.63;7.80;;;15.40;99.90;;;;;;4320201;33;20216;-77
2021/08/22 05:32:19;;;;;;;13.47;9.13;;;15.50;99.90;;;;;;4319124;33;20137;-76
2021/08/22 05:34:46;;;;;;;12.27;8.60;;;15.60;99.90;;;;;;4318608;33;20136;-77
2021/08/22 05:37:12;;;;;;;11.10;8.00;;;15.70;99.90;;;;;;4320360;33;20219;-77
2021/08/22 05:39:39;;;;;;;13.27;8.47;;;15.80;99.90;;;;;;4318722;33;20168;-77
2021/08/22 05:42:06;;;;;;;13.07;8.30;;;15.90;99.90;;;;;;4320031;33;20129;-76
2021/08/22 05:44:34;;;;;;;11.63;7.90;;;15.90;99.90;;;;;;4319365;33;20200;-77
2021/08/22 05:47:01;;;;;;;12.60;8.03;;;16.00;99.90;;;;;;4319797;33;20204;-77
2021/08/22 05:49:27;;;;;;;11.20;8.07;;;16.10;99.90;;;;;;4306432;33;20165;-77
2021/08/22 05:51:54;;;;;;;12.53;7.80;;;16.10;99.90;;;;;;4318804;33;20134;-77
2021/08/22 05:54:21;;;;;;;10.37;7.77;;;16.10;99.90;;;;;;4319743;33;20389;-76
2021/08/22 05:56:48;;;;;;;12.20;8.40;;;16.20;99.90;;;;;;4321428;33;20125;-78
2021/08/22 05:59:14;;;;;;;12.40;8.10;;;16.20;99.90;;;;;;4322222;33;20200;-76
2021/08/22 06:01:41;;;;;;;11.07;7.70;;;16.20;99.90;;;;;;4320938;33;20192;-76
2021/08/22 06:04:08;;;;;;;13.03;8.13;;;16.10;99.90;;;;;;4322942;33;20169;-76
2021/08/22 06:06:39;;;;;;;12.27;8.20;;;16.10;99.90;;;;;;4322061;33;20403;-75
2021/08/22 06:09:07;;;;;;;12.50;7.80;;;16.10;99.90;;;;;;4322986;33;20468;-75
2021/08/22 06:11:33;;;;;;;11.17;7.77;;;16.10;99.90;;;;;;4323033;33;20134;-75
2021/08/22 06:14:00;;;;;;;11.20;7.90;;;16.20;99.90;;;;;;4323049;33;20129;-76
2021/08/22 06:16:27;;;;;;;12.43;7.70;;;16.20;99.90;;;;;;4322051;33;20137;-75
2021/08/22 06:18:54;;;;;;;11.23;7.93;;;16.30;99.90;;;;;;4321374;33;20125;-76
2021/08/22 06:21:20;;;;;;;11.33;7.67;;;16.50;99.90;;;;;;4321440;33;20395;-76
2021/08/22 06:23:47;;;;;;;11.23;7.60;;;16.60;99.90;;;;;;4321819;33;20342;-76
2021/08/22 06:26:14;;;;;;;11.60;7.40;;;16.90;99.90;;;;;;4322166;33;20188;-76
2021/08/22 06:28:40;;;;;;;11.37;7.07;;;17.00;99.90;;;;;;4321609;33;20189;-76
2021/08/22 06:31:07;;;;;;;10.33;6.80;;;17.10;99.90;;;;;;4322936;33;20216;-76
2021/08/22 06:33:34;;;;;;;12.33;6.73;;;17.20;99.90;;;;;;4322278;33;20125;-76
2021/08/22 06:36:02;;;;;;;8.67;6.30;;;17.20;99.90;;;;;;4321621;33;20161;-76
2021/08/22 06:38:29;;;;;;;9.70;6.60;;;17.30;99.90;;;;;;4322978;33;20233;-76
2021/08/22 06:40:56;;;;;;;9.10;6.17;;;17.40;99.90;;;;;;4322497;33;20133;-76
2021/08/22 06:43:23;;;;;;;10.63;6.40;;;17.50;99.90;;;;;;4320869;33;20133;-77
2021/08/22 06:45:49;;;;;;;11.07;6.00;;;17.50;99.90;;;;;;4322780;33;20208;-75
2021/08/22 06:48:16;;;;;;;8.57;5.50;;;17.70;99.90;;;;;;4320727;33;20188;-76
2021/08/22 06:50:43;;;;;;;7.80;5.40;;;17.70;99.90;;;;;;4321071;33;20134;-75
2021/08/22 06:53:10;;;;;;;8.63;5.93;;;17.80;99.90;;;;;;4321864;33;20126;-75
2021/08/22 06:55:37;;;;;;;7.90;5.30;;;18.00;99.90;;;;;;4321353;33;20154;-75
2021/08/22 06:58:04;;;;;;;8.47;5.40;;;18.20;99.90;;;;;;4322238;33;20187;-75
2021/08/22 07:00:30;;;;;;;7.50;5.40;;;18.40;99.90;;;;;;4322203;33;20130;-75
2021/08/22 07:02:57;;;;;;;7.77;5.40;;;18.60;99.90;;;;;;4320379;33;20492;-75
2021/08/22 07:05:26;;;;;;;7.30;5.10;;;18.70;99.90;;;;;;4319980;33;20166;-75
2021/08/22 07:07:53;;;;;;;7.80;5.03;;;18.70;99.90;;;;;;4322362;33;20122;-75
2021/08/22 07:10:20;;;;;;;9.43;5.13;;;18.80;99.90;;;;;;4321130;33;20416;-75
2021/08/22 07:12:47;;;;;;;7.27;5.00;;;18.80;99.90;;;;;;4320689;33;20138;-76
2021/08/22 07:15:14;;;;;;;6.80;4.83;;;18.90;99.90;;;;;;4319046;33;20189;-77
2021/08/22 07:17:41;;;;;;;7.10;4.83;;;18.80;99.90;;;;;;4317768;33;20161;-76
2021/08/22 07:20:08;;;;;;;6.30;4.27;;;18.70;99.90;;;;;;4318342;33;20149;-76
2021/08/22 07:22:35;;;;;;;7.47;4.80;;;18.80;99.90;;;;;;4320273;33;20165;-76
2021/08/22 07:25:04;;;;;;;6.30;4.50;;;18.80;99.90;;;;;;4320967;33;20153;-75
2021/08/22 07:27:31;;;;;;;6.70;4.37;;;19.00;99.90;;;;;;4318620;33;20526;-75
2021/08/22 07:29:58;;;;;;;6.50;4.50;;;19.20;99.90;;;;;;4321784;33;20169;-75
2021/08/22 07:32:25;;;;;;;6.47;4.67;;;19.30;99.90;;;;;;4321627;33;20196;-76
2021/08/22 07:34:52;;;;;;;8.70;4.53;;;19.30;99.90;;;;;;4319954;33;20188;-76
2021/08/22 07:37:19;;;;;;;6.67;4.23;;;19.30;99.90;;;;;;4321798;33;20447;-76
2021/08/22 07:39:45;;;;;;;5.87;4.17;;;19.30;99.90;;;;;;4321658;33;20200;-76
2021/08/22 07:42:12;;;;;;;6.97;4.87;;;19.30;99.90;;;;;;4321033;33;20149;-76
2021/08/22 07:44:39;;;;;;;6.00;4.20;;;19.20;99.90;;;;;;4319778;33;20228;-76
2021/08/22 07:47:06;;;;;;;7.47;4.30;;;19.20;99.90;;;;;;4320763;33;20244;-76
2021/08/22 07:49:33;;;;;;;5.50;4.30;;;19.10;99.90;;;;;;4320025;33;20430;-77
2021/08/22 07:51:59;;;;;;;9.57;4.87;;;19.20;99.90;;;;;;4321589;33;20212;-76
2021/08/22 07:54:26;;;;;;;6.03;4.37;;;19.20;99.90;;;;;;4321478;33;20207;-77
2021/08/22 07:56:53;;;;;;;6.33;4.60;;;19.10;99.90;;;;;;4320124;33;20208;-76
2021/08/22 07:59:19;;;;;;;5.77;4.23;;;19.10;99.90;;;;;;4319903;33;20232;-75
2021/08/22 08:01:46;;;;;;;5.80;4.40;;;19.20;99.90;;;;;;4320473;33;20153;-77
2021/08/22 08:04:13;;;;;;;6.43;4.70;;;19.30;99.90;;;;;;4320972;33;20563;-76
2021/08/22 08:06:40;;;;;;;6.57;4.40;;;19.50;99.90;;;;;;4320121;33;20228;-77
2021/08/22 08:09:07;;;;;;;7.23;4.60;;;19.60;99.90;;;;;;4318908;33;20157;-77
2021/08/22 08:11:34;;;;;;;6.83;4.70;;;19.80;99.90;;;;;;4319085;33;20211;-77
2021/08/22 08:14:00;;;;;;;6.83;4.80;;;20.00;99.90;;;;;;4320980;33;20371;-75
2021/08/22 08:16:27;;;;;;;7.07;4.83;;;20.20;99.90;;;;;;4321093;33;20157;-76
2021/08/22 08:18:54;;;;;;;9.67;5.33;;;20.40;99.90;;;;;;4319442;33;20484;-75
2021/08/22 08:21:21;;;;;;;6.83;5.03;;;20.20;99.90;;;;;;4321068;33;20141;-75
2021/08/22 08:23:48;;;;;;;9.63;5.00;;;19.90;99.90;;;;;;4319777;33;20219;-74
2021/08/22 08:26:15;;;;;;;7.50;5.50;;;19.80;99.90;;;;;;4320297;33;20212;-75
2021/08/22 08:28:42;;;;;;;7.17;5.00;;;19.80;99.90;;;;;;4320521;33;20165;-77
2021/08/22 08:31:10;;;;;;;8.60;5.60;;;19.50;99.90;;;;;;4321061;33;20243;-75
2021/08/22 08:33:37;;;;;;;6.33;4.43;;;19.50;99.90;;;;;;4320031;33;20249;-74
2021/08/22 08:36:04;;;;;;;7.17;5.07;;;19.40;99.90;;;;;;4317934;33;20549;-76
2021/08/22 08:38:31;;;;;;;8.70;4.90;;;19.60;99.90;;;;;;4319087;33;20364;-76
2021/08/22 08:41:04;;;;;;;6.20;4.57;;;19.60;99.90;;;;;;4318835;33;20145;-76
2021/08/22 08:43:31;;;;;;;6.20;4.63;;;19.80;99.90;;;;;;4319611;33;20534;-76
2021/08/22 08:46:10;;;;;;;8.13;5.10;;;19.80;99.90;;;;;;4320341;33;20433;-75
2021/08/22 08:49:23;;;;;;;7.30;4.97;;;20.00;99.90;;;;;;4318838;33;20200;-75
2021/08/22 08:52:11;;;;;;;7.57;5.07;;;20.00;99.90;;;;;;4288623;33;20158;-75
2021/08/22 08:54:38;;;;;;;7.07;4.97;;;20.20;99.90;;;;;;4289535;33;20221;-77
2021/08/22 08:57:06;;;;;;;5.97;4.80;;;20.30;99.90;;;;;;4288113;33;20188;-76
2021/08/22 08:59:36;;;;;;;7.60;5.20;;;20.40;99.90;;;;;;4289369;33;20572;-76
2021/08/22 09:02:03;;;;;;;7.50;5.10;;;20.30;99.90;;;;;;4289129;33;20161;-76
2021/08/22 09:04:33;;;;;;;7.90;4.87;;;20.40;99.90;;;;;;4289193;33;20162;-77
2021/08/22 09:07:15;;;;;;;8.77;5.17;;;20.20;99.90;;;;;;4284257;33;20533;-77
2021/08/22 09:10:18;;;;;;;6.80;4.60;;;19.80;99.90;;;;;;4288699;33;20486;-76
2021/08/22 09:13:06;;;;;;;7.47;4.73;;;19.60;99.90;;;;;;4288361;33;20157;-76
2021/08/22 09:15:54;;;;;;;6.77;4.97;;;19.50;99.90;;;;;;4288766;33;20184;-75
2021/08/22 09:18:58;;;;;;;8.30;5.20;;;19.30;99.90;;;;;;4288427;33;20161;-76
2021/08/22 09:22:02;;;;;;;7.13;4.90;;;19.30;99.90;;;;;;4288920;33;20153;-75
2021/08/22 09:24:31;;;;;;;8.27;5.10;;;19.40;99.90;;;;;;4288988;33;20216;-76
2021/08/22 09:27:35;;;;;;;7.20;5.00;;;19.60;99.90;;;;;;4289245;33;20168;-76
2021/08/22 09:30:39;;;;;;;6.93;4.70;;;19.60;99.90;;;;;;4319857;33;20137;-76
2021/08/22 09:33:25;;;;;;;11.07;5.00;;;19.80;99.90;;;;;;4319385;33;20350;-76
2021/08/22 09:36:22;;;;;;;7.90;5.47;;;20.00;99.90;;;;;;4318499;33;20180;-76
2021/08/22 09:39:27;;;;;;;6.20;5.07;;;20.10;99.90;;;;;;4319615;33;20592;-82
2021/08/22 09:42:31;;;;;;;9.20;4.97;;;20.30;99.90;;;;;;4318837;33;20172;-79
2021/08/22 09:45:23;;;;;;;6.27;4.57;;;20.40;99.90;;;;;;4316748;33;20137;-75
2021/08/22 09:48:15;;;;;;;6.63;4.53;;;20.50;99.90;;;;;;4304868;33;20414;-76
2021/08/22 09:51:15;;;;;;;7.33;5.10;;;20.60;99.90;;;;;;4305583;33;20189;-78
2021/08/22 09:54:20;;;;;;;6.37;5.00;;;20.80;99.90;;;;;;4303852;33;20161;-80
2021/08/22 09:57:29;;;;;;;6.43;4.90;;;21.10;99.90;;;;;;4295781;33;20378;-78
2021/08/22 10:00:18;;;;;;;6.67;4.57;;;21.70;99.90;;;;;;4318375;33;20141;-78
2021/08/22 10:02:59;;;;;;;6.37;4.50;;;22.40;99.90;;;;;;4319878;33;20141;-77
2021/08/22 10:05:35;;;;;;;7.87;5.00;;;23.10;99.90;;;;;;4317564;33;20173;-78
2021/08/22 10:08:23;;;;;;;7.07;5.40;;;23.50;99.90;;;;;;4318243;33;20188;-77
2021/08/22 10:11:03;;;;;;;8.87;5.13;;;23.70;99.90;;;;;;4320087;33;20160;-77
2021/08/22 10:13:30;;;;;;;11.93;5.67;;;23.70;99.90;;;;;;4320285;33;20477;-73
2021/08/22 10:15:57;;;;;;;6.73;5.00;;;23.60;99.90;;;;;;4319311;33;20460;-75
2021/08/22 10:18:25;;;;;;;8.10;5.23;;;23.50;99.90;;;;;;4319148;33;20412;-75
2021/08/22 10:21:07;;;;;;;8.80;5.20;;;23.30;99.90;;;;;;4320275;33;20492;-74
2021/08/22 10:23:43;;;;;;;7.73;5.20;;;23.20;99.90;;;;;;4318964;33;20157;-76
2021/08/22 10:26:11;;;;;;;6.75;5.05;;;23.20;99.90;;;;;;4318942;33;20208;-75
2021/08/22 10:28:54;;;;;;;7.03;4.53;;;23.50;99.90;;;;;;4318980;33;20207;-76
2021/08/22 10:31:48;;;;;;;6.73;4.97;;;23.60;99.90;;;;;;4320349;33;20220;-75
2021/08/22 10:34:22;;;;;;;8.60;4.87;;;23.30;99.90;;;;;;4319383;33;20138;-78
2021/08/22 10:36:50;;;;;;;6.37;4.77;;;23.10;99.90;;;;;;4317568;33;20275;-76
2021/08/22 10:39:21;;;;;;;7.43;4.87;;;23.10;99.90;;;;;;4318553;33;20204;-77
2021/08/22 10:41:58;;;;;;;5.30;4.10;;;23.10;99.90;;;;;;4322320;33;20184;-76
2021/08/22 10:44:34;;;;;;;6.63;5.03;;;23.20;99.90;;;;;;4322472;33;20239;-77
2021/08/22 10:47:08;;;;;;;6.20;4.30;;;23.40;99.90;;;;;;4320139;33;20224;-76
2021/08/22 10:49:50;;;;;;;5.60;4.47;;;23.70;99.90;;;;;;4322618;33;20191;-76
2021/08/22 10:52:32;;;;;;;6.28;4.60;;;24.00;99.90;;;;;;4321790;33;20194;-75
2021/08/22 10:55:11;;;;;;;5.47;4.33;;;24.10;99.90;;;;;;4315862;33;20133;-75
2021/08/22 10:57:49;;;;;;;6.90;4.60;;;24.20;99.90;;;;;;4321860;33;20125;-76
2021/08/22 11:00:35;;;;;;;6.05;4.32;;;23.90;99.90;;;;;;4322695;33;20129;-75
2021/08/22 11:03:19;;;;;;;6.73;4.07;;;23.90;99.90;;;;;;4321289;33;20137;-74
2021/08/22 11:05:47;;;;;;;7.97;4.78;;;23.90;99.90;;;;;;4320837;33;20153;-74
2021/08/22 11:08:22;;;;;;;7.18;4.47;;;24.50;99.90;;;;;;4322189;33;20401;-76
2021/08/22 11:11:05;;;;;;;5.93;4.00;;;25.40;99.90;;;;;;4322380;33;20417;-75
2021/08/22 11:13:41;;;;;;;5.65;4.07;;;26.20;99.90;;;;;;4321995;33;20418;-75
2021/08/22 11:16:09;;;;;;;6.55;3.90;;;26.70;99.90;;;;;;4307142;33;20191;-75
2021/08/22 11:18:37;;;;;;;4.82;4.07;;;27.00;99.90;;;;;;4321483;33;20138;-75
2021/08/22 11:21:04;;;;;;;4.60;3.70;;;27.20;99.90;;;;;;4321670;33;20191;-75
2021/08/22 11:23:31;;;;;;;5.10;3.40;;;27.40;99.90;;;;;;4320556;33;20175;-74
2021/08/22 11:26:07;;;;;;;3.53;3.17;;;27.50;99.90;;;;;;4321172;33;20221;-74
2021/08/22 11:28:34;;;;;;;6.28;3.85;;;27.80;99.90;;;;;;4321546;33;20148;-75
2021/08/22 11:31:11;;;;;;;6.00;3.70;;;27.90;99.90;;;;;;4319648;33;20431;-74
2021/08/22 11:33:38;;;;;;;4.95;3.60;;;27.90;99.90;;;;;;4320913;33;20573;-73
2021/08/22 11:36:05;;;;;;;5.03;3.90;;;28.30;99.90;;;;;;4319954;33;20273;-75
2021/08/22 11:38:32;;;;;;;4.20;3.65;;;29.00;99.90;;;;;;4320065;33;20156;-77
2021/08/22 11:41:04;;;;;;;5.10;3.58;;;29.50;99.60;;;;;;4320499;33;20153;-76
2021/08/22 11:43:32;;;;;;;4.25;3.45;;;29.70;99.90;;;;;;4320285;33;20165;-76
2021/08/22 11:45:59;;;;;;;5.43;3.90;;;29.80;99.00;;;;;;4321903;33;20134;-75
2021/08/22 11:48:26;;;;;;;4.65;3.80;;;29.70;98.20;;;;;;4319890;33;20134;-72
2021/08/22 11:51:00;;;;;;;4.50;3.35;;;29.50;96.60;;;;;;4320070;33;20551;-74
2021/08/22 11:53:29;;;;;;;4.68;3.40;;;29.50;95.50;;;;;;4319447;33;20151;-76
2021/08/22 11:55:56;;;;;;;3.45;2.80;;;29.90;94.00;;;;;;4321712;33;20129;-75
2021/08/22 11:58:24;;;;;;;4.22;2.80;;;29.90;92.60;;;;;;4307077;33;20138;-75
2021/08/22 12:00:55;;;;;;;3.70;2.90;;;30.30;90.00;;;;;;4320484;33;20212;-75
2021/08/22 12:03:23;;;;;;;4.65;3.28;;;30.60;88.10;;;;;;4321531;33;20192;-75
2021/08/22 12:05:51;;;;;;;3.15;2.83;;;30.90;88.10;;;;;;4321276;33;20189;-75
2021/08/22 12:08:17;;;;;;;3.35;2.95;;;30.60;82.80;;;;;;4320703;33;20175;-75
2021/08/22 12:10:44;;;;;;;3.83;2.97;;;30.40;87.40;;;;;;4321548;33;20161;-75
2021/08/22 12:13:19;;;;;;;4.30;2.90;;;30.60;85.00;;;;;;4321429;33;20133;-75
2021/08/22 12:15:49;;;;;;;5.30;2.90;;;30.70;83.80;;;;;;4319858;33;20125;-77
2021/08/22 12:18:26;;;;;;;4.07;3.17;;;31.00;86.20;;;;;;4319539;33;20159;-75
2021/08/22 12:21:15;;;;;;;4.00;3.35;;;31.00;85.40;;;;;;4320019;33;20184;-76
2021/08/22 12:23:46;;;;;;;4.10;2.90;;;30.50;82.40;;;;;;4319490;33;20142;-75
2021/08/22 12:26:29;;;;;;;4.57;2.92;;;29.90;85.60;;;;;;4320495;33;20195;-75
2021/08/22 12:29:06;;;;;;;4.10;3.17;;;29.20;87.50;;;;;;4321224;33;20183;-75
2021/08/22 12:31:35;;;;;;;4.50;3.10;;;28.60;87.20;;;;;;4319372;33;20145;-77
2021/08/22 12:34:16;;;;;;;5.45;3.25;;;28.40;89.90;;;;;;4319472;33;20225;-75
2021/08/22 12:36:47;;;;;;;4.50;3.42;;;28.00;90.30;;;;;;4319388;33;20168;-75
2021/08/22 12:39:18;;;;;;;5.07;3.28;;;27.80;91.50;;;;;;4319577;33;20125;-76
2021/08/22 12:41:51;;;;;;;3.67;3.28;;;27.70;90.80;;;;;;4319812;33;20231;-74
2021/08/22 12:44:26;;;;;;;3.78;3.28;;;27.60;91.20;;;;;;4319915;33;20134;-75
2021/08/22 12:46:57;;;;;;;4.10;3.03;;;27.70;92.20;;;;;;4320217;33;20211;-74
2021/08/22 12:49:24;;;;;;;3.95;3.25;;;27.60;91.30;;;;;;4320418;33;20146;-74
2021/08/22 12:51:54;;;;;;;4.18;3.45;;;27.60;91.40;;;;;;4320840;33;20486;-73
2021/08/22 12:54:22;;;;;;;4.35;3.17;;;27.50;91.70;;;;;;4320965;33;20399;-73
2021/08/22 12:56:49;;;;;;;4.90;3.35;;;27.60;91.50;;;;;;4320225;33;20216;-73
2021/08/22 12:59:17;;;;;;;5.00;2.90;;;27.70;90.40;;;;;;4320513;33;20138;-73